sensor_id;sensor_type;location;lat;lon;timestamp;pressure;altitude;pressure_sealevel;temperature;humidity
1926;BME280;964;42.606;23.588;2023-01-24T00:00:42;95502.78;;;17.07;40.27
1926;BME280;964;42.606;23.588;2023-01-24T00:03:09;95488.66;;;17.10;40.24
1926;BME280;964;42.606;23.588;2023-01-24T00:05:37;95495.81;;;16.70;41.09
1926;BME280;964;42.606;23.588;2023-01-24T00:08:04;95495.78;;;16.66;42.03
1926;BME280;964;42.606;23.588;2023-01-24T00:10:32;95495.78;;;16.66;41.25
1926;BME280;964;42.606;23.588;2023-01-24T00:12:59;95497.78;;;16.43;42.10
1926;BME280;964;42.606;23.588;2023-01-24T00:15:25;95494.72;;;16.44;42.57
1926;BME280;964;42.606;23.588;2023-01-24T00:17:52;95489.38;;;17.44;41.12
1926;BME280;964;42.606;23.588;2023-01-24T00:20:19;95498.25;;;17.52;39.50
1926;BME280;964;42.606;23.588;2023-01-24T00:22:45;95502.50;;;17.20;40.84
1926;BME280;964;42.606;23.588;2023-01-24T00:25:12;95503.72;;;17.26;40.43
1926;BME280;964;42.606;23.588;2023-01-24T00:27:40;95498.63;;;16.80;41.84
1926;BME280;964;42.606;23.588;2023-01-24T00:30:09;95505.63;;;16.58;41.68
1926;BME280;964;42.606;23.588;2023-01-24T00:32:35;95503.63;;;17.15;40.79
1926;BME280;964;42.606;23.588;2023-01-24T00:35:03;95515.69;;;16.12;42.23
1926;BME280;964;42.606;23.588;2023-01-24T00:37:30;95514.38;;;16.85;41.62
1926;BME280;964;42.606;23.588;2023-01-24T00:39:56;95507.38;;;16.77;41.82
1926;BME280;964;42.606;23.588;2023-01-24T00:42:23;95497.06;;;17.12;40.90
1926;BME280;964;42.606;23.588;2023-01-24T00:44:51;95502.94;;;16.88;41.04
1926;BME280;964;42.606;23.588;2023-01-24T00:47:18;95508.88;;;16.45;42.61
1926;BME280;964;42.606;23.588;2023-01-24T00:49:44;95500.31;;;17.29;41.41
1926;BME280;964;42.606;23.588;2023-01-24T00:52:11;95496.06;;;17.28;39.69
1926;BME280;964;42.606;23.588;2023-01-24T00:54:38;95501.44;;;17.28;41.15
1926;BME280;964;42.606;23.588;2023-01-24T00:57:04;95525.53;;;15.82;42.91
1926;BME280;964;42.606;23.588;2023-01-24T00:59:31;95511.19;;;16.76;41.27
1926;BME280;964;42.606;23.588;2023-01-24T01:01:59;95515.16;;;16.30;43.06
1926;BME280;964;42.606;23.588;2023-01-24T01:04:26;95531.50;;;15.98;42.21
1926;BME280;964;42.606;23.588;2023-01-24T01:06:52;95520.78;;;15.49;43.80
1926;BME280;964;42.606;23.588;2023-01-24T01:09:19;95519.84;;;15.84;43.12
1926;BME280;964;42.606;23.588;2023-01-24T01:11:45;95518.16;;;15.53;43.42
1926;BME280;964;42.606;23.588;2023-01-24T01:14:12;95529.34;;;16.07;42.70
1926;BME280;964;42.606;23.588;2023-01-24T01:16:39;95517.81;;;15.77;43.09
1926;BME280;964;42.606;23.588;2023-01-24T01:19:08;95513.59;;;16.29;42.92
1926;BME280;964;42.606;23.588;2023-01-24T01:21:35;95507.66;;;15.86;42.91
1926;BME280;964;42.606;23.588;2023-01-24T01:24:02;95505.97;;;15.78;42.60
1926;BME280;964;42.606;23.588;2023-01-24T01:26:29;95507.25;;;15.61;43.67
1926;BME280;964;42.606;23.588;2023-01-24T01:28:56;95511.13;;;16.13;42.71
1926;BME280;964;42.606;23.588;2023-01-24T01:31:23;95521.28;;;15.81;43.41
1926;BME280;964;42.606;23.588;2023-01-24T01:33:50;95509.69;;;15.70;43.68
1926;BME280;964;42.606;23.588;2023-01-24T01:36:18;95504.78;;;15.98;43.65
1926;BME280;964;42.606;23.588;2023-01-24T01:38:45;95500.81;;;16.71;40.82
1926;BME280;964;42.606;23.588;2023-01-24T01:41:12;95499.59;;;16.98;40.18
1926;BME280;964;42.606;23.588;2023-01-24T01:43:39;95490.44;;;16.66;41.00
1926;BME280;964;42.606;23.588;2023-01-24T01:46:28;95493.53;;;16.68;41.02
1926;BME280;964;42.606;23.588;2023-01-24T01:48:59;95491.69;;;16.46;40.48
1926;BME280;964;42.606;23.588;2023-01-24T01:51:31;95487.69;;;16.92;40.73
1926;BME280;964;42.606;23.588;2023-01-24T01:54:05;95491.72;;;15.93;42.27
1926;BME280;964;42.606;23.588;2023-01-24T01:56:36;95482.25;;;16.55;41.38
1926;BME280;964;42.606;23.588;2023-01-24T01:59:08;95492.84;;;15.92;42.25
1926;BME280;964;42.606;23.588;2023-01-24T02:01:37;95484.03;;;16.74;40.56
1926;BME280;964;42.606;23.588;2023-01-24T02:04:07;95491.63;;;17.05;40.20
1926;BME280;964;42.606;23.588;2023-01-24T02:06:48;95491.63;;;17.05;39.82
1926;BME280;964;42.606;23.588;2023-01-24T02:09:19;95511.06;;;16.09;41.88
1926;BME280;964;42.606;23.588;2023-01-24T02:11:47;95485.13;;;18.49;37.19
1926;BME280;964;42.606;23.588;2023-01-24T02:14:17;95487.84;;;17.91;38.62
1926;BME280;964;42.606;23.588;2023-01-24T02:17:02;95496.56;;;17.37;39.12
1926;BME280;964;42.606;23.588;2023-01-24T02:19:45;95490.59;;;16.80;40.23
1926;BME280;964;42.606;23.588;2023-01-24T02:22:17;95493.31;;;16.54;40.26
1926;BME280;964;42.606;23.588;2023-01-24T02:24:53;95488.53;;;17.77;38.15
1926;BME280;964;42.606;23.588;2023-01-24T02:27:25;95497.78;;;16.43;40.21
1926;BME280;964;42.606;23.588;2023-01-24T02:29:53;95501.53;;;16.64;39.98
1926;BME280;964;42.606;23.588;2023-01-24T02:32:20;95496.84;;;16.91;39.42
1926;BME280;964;42.606;23.588;2023-01-24T02:34:46;95493.66;;;17.12;39.12
1926;BME280;964;42.606;23.588;2023-01-24T02:37:13;95488.66;;;17.98;37.60
1926;BME280;964;42.606;23.588;2023-01-24T02:39:47;95503.97;;;16.50;39.88
1926;BME280;964;42.606;23.588;2023-01-24T02:42:17;95487.91;;;18.01;38.09
1926;BME280;964;42.606;23.588;2023-01-24T02:44:53;95497.44;;;17.48;38.56
1926;BME280;964;42.606;23.588;2023-01-24T02:47:27;95490.13;;;18.47;37.14
1926;BME280;964;42.606;23.588;2023-01-24T02:49:57;95500.22;;;17.58;37.99
1926;BME280;964;42.606;23.588;2023-01-24T02:52:24;95477.75;;;19.32;35.65
1926;BME280;964;42.606;23.588;2023-01-24T02:55:08;95480.25;;;17.56;38.33
1926;BME280;964;42.606;23.588;2023-01-24T02:57:35;95479.50;;;17.99;37.89
1926;BME280;964;42.606;23.588;2023-01-24T03:00:21;95489.38;;;16.74;39.49
1926;BME280;964;42.606;23.588;2023-01-24T03:02:48;95485.91;;;17.44;38.02
1926;BME280;964;42.606;23.588;2023-01-24T03:05:15;95472.31;;;19.00;36.20
1926;BME280;964;42.606;23.588;2023-01-24T03:07:42;95479.31;;;17.38;37.20
1926;BME280;964;42.606;23.588;2023-01-24T03:10:10;95487.75;;;16.66;39.31
1926;BME280;964;42.606;23.588;2023-01-24T03:12:38;95487.75;;;16.99;38.99
1926;BME280;964;42.606;23.588;2023-01-24T03:15:24;95483.81;;;17.67;37.44
1926;BME280;964;42.606;23.588;2023-01-24T03:18:08;95480.00;;;17.68;39.12
1926;BME280;964;42.606;23.588;2023-01-24T03:20:53;95499.31;;;16.17;40.48
1926;BME280;964;42.606;23.588;2023-01-24T03:23:37;95481.06;;;18.07;37.51
1926;BME280;964;42.606;23.588;2023-01-24T03:26:22;95487.66;;;17.26;37.69
1926;BME280;964;42.606;23.588;2023-01-24T03:29:07;95490.19;;;17.11;38.75
1926;BME280;964;42.606;23.588;2023-01-24T03:31:53;95487.84;;;17.47;38.56
1926;BME280;964;42.606;23.588;2023-01-24T03:34:37;95481.97;;;18.33;37.23
1926;BME280;964;42.606;23.588;2023-01-24T03:37:15;95482.28;;;17.26;38.40
1926;BME280;964;42.606;23.588;2023-01-24T03:40:08;95494.03;;;16.51;39.69
1926;BME280;964;42.606;23.588;2023-01-24T03:42:35;95480.81;;;16.95;39.35
1926;BME280;964;42.606;23.588;2023-01-24T03:45:14;95488.09;;;17.35;38.30
1926;BME280;964;42.606;23.588;2023-01-24T03:47:45;95497.66;;;16.36;39.75
1926;BME280;964;42.606;23.588;2023-01-24T03:50:20;95490.03;;;16.97;38.96
1926;BME280;964;42.606;23.588;2023-01-24T03:53:05;95485.91;;;17.84;37.85
1926;BME280;964;42.606;23.588;2023-01-24T03:55:32;95480.34;;;17.23;37.50
1926;BME280;964;42.606;23.588;2023-01-24T03:57:59;95484.69;;;17.38;38.02
1926;BME280;964;42.606;23.588;2023-01-24T04:00:26;95486.38;;;18.00;36.87
1926;BME280;964;42.606;23.588;2023-01-24T04:02:54;95475.78;;;17.67;37.91
1926;BME280;964;42.606;23.588;2023-01-24T04:05:22;95478.84;;;18.20;36.64
1926;BME280;964;42.606;23.588;2023-01-24T04:07:49;95480.16;;;17.89;37.78
1926;BME280;964;42.606;23.588;2023-01-24T04:10:16;95481.47;;;17.58;37.92
1926;BME280;964;42.606;23.588;2023-01-24T04:12:45;95482.41;;;16.99;39.35
1926;BME280;964;42.606;23.588;2023-01-24T04:15:16;95489.38;;;17.07;38.71
1926;BME280;964;42.606;23.588;2023-01-24T04:17:43;95478.13;;;17.72;37.74
1926;BME280;964;42.606;23.588;2023-01-24T04:20:12;95482.38;;;16.96;38.19
1926;BME280;964;42.606;23.588;2023-01-24T04:22:39;95487.94;;;16.54;40.44
1926;BME280;964;42.606;23.588;2023-01-24T04:25:08;95478.66;;;17.88;37.89
1926;BME280;964;42.606;23.588;2023-01-24T04:27:36;95476.34;;;17.90;37.15
1926;BME280;964;42.606;23.588;2023-01-24T04:30:05;95479.41;;;17.04;38.37
1926;BME280;964;42.606;23.588;2023-01-24T04:32:33;95480.34;;;17.23;37.90
1926;BME280;964;42.606;23.588;2023-01-24T04:35:00;95478.22;;;16.68;39.16
1926;BME280;964;42.606;23.588;2023-01-24T04:37:30;95469.56;;;16.49;39.73
1926;BME280;964;42.606;23.588;2023-01-24T04:39:57;95466.59;;;17.24;38.39
1926;BME280;964;42.606;23.588;2023-01-24T04:42:25;95458.94;;;18.25;36.71
1926;BME280;964;42.606;23.588;2023-01-24T04:44:52;95451.44;;;18.55;35.90
1926;BME280;964;42.606;23.588;2023-01-24T04:47:19;95467.94;;;17.92;36.65
1926;BME280;964;42.606;23.588;2023-01-24T04:49:46;95457.75;;;19.01;35.43
1926;BME280;964;42.606;23.588;2023-01-24T04:52:13;95462.44;;;20.03;33.70
1926;BME280;964;42.606;23.588;2023-01-24T04:54:41;95469.91;;;18.67;34.91
1926;BME280;964;42.606;23.588;2023-01-24T04:57:11;95471.41;;;18.54;36.57
1926;BME280;964;42.606;23.588;2023-01-24T04:59:38;95473.94;;;20.15;33.50
1926;BME280;964;42.606;23.588;2023-01-24T05:02:05;95475.50;;;19.87;33.79
1926;BME280;964;42.606;23.588;2023-01-24T05:04:32;95481.75;;;17.50;36.79
1926;BME280;964;42.606;23.588;2023-01-24T05:06:59;95505.38;;;16.41;38.79
1926;BME280;964;42.606;23.588;2023-01-24T05:09:26;95485.31;;;18.91;35.00
1926;BME280;964;42.606;23.588;2023-01-24T05:11:54;95492.44;;;17.90;36.18
1926;BME280;964;42.606;23.588;2023-01-24T05:14:21;95489.16;;;18.83;34.93
1926;BME280;964;42.606;23.588;2023-01-24T05:16:48;95486.66;;;19.47;34.71
1926;BME280;964;42.606;23.588;2023-01-24T05:19:15;95486.50;;;18.22;36.03
1926;BME280;964;42.606;23.588;2023-01-24T05:21:42;95485.31;;;16.87;38.54
1926;BME280;964;42.606;23.588;2023-01-24T05:24:08;95492.94;;;17.19;37.36
1926;BME280;964;42.606;23.588;2023-01-24T05:26:35;95491.41;;;18.05;37.03
1926;BME280;964;42.606;23.588;2023-01-24T05:29:03;95505.44;;;17.07;38.17
1926;BME280;964;42.606;23.588;2023-01-24T05:31:30;95523.59;;;16.05;39.41
1926;BME280;964;42.606;23.588;2023-01-24T05:33:57;95512.31;;;17.86;37.07
1926;BME280;964;42.606;23.588;2023-01-24T05:36:24;95512.56;;;18.86;35.43
1926;BME280;964;42.606;23.588;2023-01-24T05:38:51;95518.72;;;18.90;34.70
1926;BME280;964;42.606;23.588;2023-01-24T05:41:19;95521.13;;;18.41;36.26
1926;BME280;964;42.606;23.588;2023-01-24T05:43:46;95534.28;;;17.58;37.06
1926;BME280;964;42.606;23.588;2023-01-24T05:46:17;95535.69;;;18.40;35.03
1926;BME280;964;42.606;23.588;2023-01-24T05:48:46;95556.38;;;16.81;38.47
1926;BME280;964;42.606;23.588;2023-01-24T05:51:15;95541.56;;;18.01;36.93
1926;BME280;964;42.606;23.588;2023-01-24T05:53:43;95544.94;;;17.91;35.91
1926;BME280;964;42.606;23.588;2023-01-24T05:56:11;95548.34;;;16.55;38.53
1926;BME280;964;42.606;23.588;2023-01-24T05:58:40;95541.38;;;17.06;38.46
1926;BME280;964;42.606;23.588;2023-01-24T06:01:07;95546.28;;;16.67;38.35
1926;BME280;964;42.606;23.588;2023-01-24T06:03:36;95548.31;;;15.99;40.30
1926;BME280;964;42.606;23.588;2023-01-24T06:06:04;95545.69;;;16.29;39.88
1926;BME280;964;42.606;23.588;2023-01-24T06:08:31;95550.13;;;16.17;39.94
1926;BME280;964;42.606;23.588;2023-01-24T06:11:01;95541.69;;;17.72;37.42
1926;BME280;964;42.606;23.588;2023-01-24T06:13:49;95549.88;;;17.89;37.17
1926;BME280;964;42.606;23.588;2023-01-24T06:16:17;95565.72;;;15.89;39.21
1926;BME280;964;42.606;23.588;2023-01-24T06:18:47;95570.53;;;16.55;39.03
1926;BME280;964;42.606;23.588;2023-01-24T06:21:22;95565.69;;;16.61;39.20
1926;BME280;964;42.606;23.588;2023-01-24T06:23:51;95560.66;;;17.19;38.08
1926;BME280;964;42.606;23.588;2023-01-24T06:26:19;95567.81;;;16.52;38.05
1926;BME280;964;42.606;23.588;2023-01-24T06:28:46;95581.09;;;15.50;40.44
1926;BME280;964;42.606;23.588;2023-01-24T06:31:23;95581.34;;;15.64;40.28
1926;BME280;964;42.606;23.588;2023-01-24T06:34:12;95576.75;;;16.89;37.98
1926;BME280;964;42.606;23.588;2023-01-24T06:36:49;95584.91;;;16.44;38.48
1926;BME280;964;42.606;23.588;2023-01-24T06:39:19;95596.84;;;15.78;39.75
1926;BME280;964;42.606;23.588;2023-01-24T06:41:47;95601.44;;;16.76;37.34
1926;BME280;964;42.606;23.588;2023-01-24T06:44:14;95599.00;;;16.41;38.11
1926;BME280;964;42.606;23.588;2023-01-24T06:46:41;95593.34;;;17.02;37.19
1926;BME280;964;42.606;23.588;2023-01-24T06:49:11;95586.63;;;17.15;38.26
1926;BME280;964;42.606;23.588;2023-01-24T06:51:38;95603.50;;;16.37;38.34
1926;BME280;964;42.606;23.588;2023-01-24T06:54:05;95606.06;;;16.79;37.79
1926;BME280;964;42.606;23.588;2023-01-24T06:56:31;95602.91;;;17.33;37.21
1926;BME280;964;42.606;23.588;2023-01-24T06:58:58;95598.38;;;17.37;36.62
1926;BME280;964;42.606;23.588;2023-01-24T07:01:25;95592.53;;;17.61;36.24
1926;BME280;964;42.606;23.588;2023-01-24T07:03:53;95604.69;;;16.92;37.76
1926;BME280;964;42.606;23.588;2023-01-24T07:06:22;95615.00;;;16.37;38.26
1926;BME280;964;42.606;23.588;2023-01-24T07:08:49;95606.59;;;17.21;37.75
1926;BME280;964;42.606;23.588;2023-01-24T07:11:16;95620.34;;;16.60;37.75
1926;BME280;964;42.606;23.588;2023-01-24T07:13:42;95607.59;;;17.43;37.22
1926;BME280;964;42.606;23.588;2023-01-24T07:16:09;95621.03;;;16.08;38.92
1926;BME280;964;42.606;23.588;2023-01-24T07:18:37;95630.66;;;16.12;38.65
1926;BME280;964;42.606;23.588;2023-01-24T07:21:08;95628.22;;;16.53;38.14
1926;BME280;964;42.606;23.588;2023-01-24T07:23:37;95621.69;;;17.03;36.61
1926;BME280;964;42.606;23.588;2023-01-24T07:26:04;95636.25;;;16.53;37.86
1926;BME280;964;42.606;23.588;2023-01-24T07:28:35;95635.41;;;17.01;37.31
1926;BME280;964;42.606;23.588;2023-01-24T07:31:02;95631.91;;;16.67;37.21
1926;BME280;964;42.606;23.588;2023-01-24T07:33:29;95635.66;;;16.63;37.55
1926;BME280;964;42.606;23.588;2023-01-24T07:35:56;95634.53;;;16.90;37.10
1926;BME280;964;42.606;23.588;2023-01-24T07:38:23;95644.50;;;15.95;38.64
1926;BME280;964;42.606;23.588;2023-01-24T07:40:51;95635.28;;;17.54;35.99
1926;BME280;964;42.606;23.588;2023-01-24T07:43:18;95647.56;;;17.55;35.90
1926;BME280;964;42.606;23.588;2023-01-24T07:45:45;95651.88;;;16.74;36.70
1926;BME280;964;42.606;23.588;2023-01-24T07:48:12;95652.09;;;16.39;37.40
1926;BME280;964;42.606;23.588;2023-01-24T07:50:39;95659.09;;;16.01;38.82
1926;BME280;964;42.606;23.588;2023-01-24T07:53:06;95656.84;;;17.61;35.48
1926;BME280;964;42.606;23.588;2023-01-24T07:55:33;95664.91;;;16.30;37.36
1926;BME280;964;42.606;23.588;2023-01-24T07:58:02;95659.22;;;17.06;36.61
1926;BME280;964;42.606;23.588;2023-01-24T08:00:29;95672.06;;;15.03;39.87
1926;BME280;964;42.606;23.588;2023-01-24T08:02:57;95663.44;;;16.09;37.66
1926;BME280;964;42.606;23.588;2023-01-24T08:05:24;95674.03;;;15.45;39.31
1926;BME280;964;42.606;23.588;2023-01-24T08:07:50;95675.97;;;15.25;40.23
1926;BME280;964;42.606;23.588;2023-01-24T08:10:19;95679.16;;;15.50;39.76
1926;BME280;964;42.606;23.588;2023-01-24T08:12:47;95678.25;;;15.07;39.37
1926;BME280;964;42.606;23.588;2023-01-24T08:15:15;95673.25;;;15.06;39.40
1926;BME280;964;42.606;23.588;2023-01-24T08:17:42;95669.66;;;15.52;39.19
1926;BME280;964;42.606;23.588;2023-01-24T08:20:10;95672.91;;;15.27;39.38
1926;BME280;964;42.606;23.588;2023-01-24T08:22:38;95679.47;;;15.48;39.21
1926;BME280;964;42.606;23.588;2023-01-24T08:25:05;95667.16;;;16.73;36.90
1926;BME280;964;42.606;23.588;2023-01-24T08:27:32;95671.53;;;16.58;37.44
1926;BME280;964;42.606;23.588;2023-01-24T08:29:59;95669.16;;;16.80;37.09
1926;BME280;964;42.606;23.588;2023-01-24T08:32:27;95657.13;;;18.30;35.41
1926;BME280;964;42.606;23.588;2023-01-24T08:34:54;95674.69;;;17.20;35.54
1926;BME280;964;42.606;23.588;2023-01-24T08:37:21;95678.78;;;16.12;37.21
1926;BME280;964;42.606;23.588;2023-01-24T08:39:49;95679.75;;;16.99;36.03
1926;BME280;964;42.606;23.588;2023-01-24T08:42:15;95670.84;;;17.17;36.75
1926;BME280;964;42.606;23.588;2023-01-24T08:44:42;95673.88;;;17.16;36.31
1926;BME280;964;42.606;23.588;2023-01-24T08:47:09;95675.69;;;17.08;36.50
1926;BME280;964;42.606;23.588;2023-01-24T08:49:37;95678.38;;;17.08;37.15
1926;BME280;964;42.606;23.588;2023-01-24T08:52:04;95664.72;;;17.80;36.17
1926;BME280;964;42.606;23.588;2023-01-24T08:54:31;95661.66;;;17.82;35.74
1926;BME280;964;42.606;23.588;2023-01-24T08:57:00;95673.38;;;16.32;37.39
1926;BME280;964;42.606;23.588;2023-01-24T08:59:27;95670.88;;;16.19;37.71
1926;BME280;964;42.606;23.588;2023-01-24T09:01:54;95671.22;;;16.41;37.46
1926;BME280;964;42.606;23.588;2023-01-24T09:04:21;95670.53;;;17.23;36.97
1926;BME280;964;42.606;23.588;2023-01-24T09:06:50;95676.50;;;15.92;37.57
1926;BME280;964;42.606;23.588;2023-01-24T09:09:18;95664.91;;;16.75;37.69
1926;BME280;964;42.606;23.588;2023-01-24T09:11:45;95667.00;;;16.62;37.49
1926;BME280;964;42.606;23.588;2023-01-24T09:14:12;95667.97;;;16.77;37.30
1926;BME280;964;42.606;23.588;2023-01-24T09:16:38;95665.63;;;16.49;36.84
1926;BME280;964;42.606;23.588;2023-01-24T09:19:05;95667.38;;;17.47;36.24
1926;BME280;964;42.606;23.588;2023-01-24T09:21:33;95662.19;;;17.61;35.89
1926;BME280;964;42.606;23.588;2023-01-24T09:24:01;95653.16;;;18.57;35.08
1926;BME280;964;42.606;23.588;2023-01-24T09:26:28;95662.28;;;18.49;35.05
1926;BME280;964;42.606;23.588;2023-01-24T09:28:55;95658.19;;;18.22;35.17
1926;BME280;964;42.606;23.588;2023-01-24T09:31:22;95659.56;;;18.96;34.23
1926;BME280;964;42.606;23.588;2023-01-24T09:33:49;95655.53;;;18.69;34.49
1926;BME280;964;42.606;23.588;2023-01-24T09:36:16;95653.31;;;18.78;34.47
1926;BME280;964;42.606;23.588;2023-01-24T09:38:42;95655.84;;;19.19;34.50
1926;BME280;964;42.606;23.588;2023-01-24T09:41:17;95657.31;;;18.51;35.63
1926;BME280;964;42.606;23.588;2023-01-24T09:43:50;95658.31;;;17.92;36.43
1926;BME280;964;42.606;23.588;2023-01-24T09:46:22;95656.41;;;18.84;34.45
1926;BME280;964;42.606;23.588;2023-01-24T09:48:58;95658.34;;;18.36;35.30
1926;BME280;964;42.606;23.588;2023-01-24T09:51:29;95656.38;;;18.80;34.04
1926;BME280;964;42.606;23.588;2023-01-24T09:53:59;95649.59;;;19.00;33.92
1926;BME280;964;42.606;23.588;2023-01-24T09:56:30;95650.47;;;18.57;34.50
1926;BME280;964;42.606;23.588;2023-01-24T09:59:09;95655.28;;;18.37;35.15
1926;BME280;964;42.606;23.588;2023-01-24T10:01:39;95655.06;;;18.12;35.59
1926;BME280;964;42.606;23.588;2023-01-24T10:04:15;95651.13;;;17.99;34.70
1926;BME280;964;42.606;23.588;2023-01-24T10:07:04;95651.22;;;18.54;33.98
1926;BME280;964;42.606;23.588;2023-01-24T10:09:42;95650.00;;;17.67;35.08
1926;BME280;964;42.606;23.588;2023-01-24T10:12:21;95640.09;;;18.52;34.64
1926;BME280;964;42.606;23.588;2023-01-24T10:14:59;95649.78;;;18.23;35.62
1926;BME280;964;42.606;23.588;2023-01-24T10:18:01;95642.09;;;18.22;34.96
1926;BME280;964;42.606;23.588;2023-01-24T10:20:44;95635.66;;;17.86;36.12
1926;BME280;964;42.606;23.588;2023-01-24T10:23:16;95642.03;;;17.74;35.46
1926;BME280;964;42.606;23.588;2023-01-24T10:25:56;95642.97;;;17.92;35.58
1926;BME280;964;42.606;23.588;2023-01-24T10:28:28;95626.78;;;18.73;34.25
1926;BME280;964;42.606;23.588;2023-01-24T10:31:02;95634.16;;;17.88;35.98
1926;BME280;964;42.606;23.588;2023-01-24T10:33:33;95635.91;;;17.70;36.59
1926;BME280;964;42.606;23.588;2023-01-24T10:36:08;95626.41;;;18.24;35.96
1926;BME280;964;42.606;23.588;2023-01-24T10:38:35;95621.78;;;18.65;34.97
1926;BME280;964;42.606;23.588;2023-01-24T10:41:17;95624.44;;;19.37;33.82
1926;BME280;964;42.606;23.588;2023-01-24T10:43:49;95618.19;;;19.12;34.24
1926;BME280;964;42.606;23.588;2023-01-24T10:46:34;95608.28;;;19.23;33.92
1926;BME280;964;42.606;23.588;2023-01-24T10:49:07;95611.91;;;19.83;33.74
1926;BME280;964;42.606;23.588;2023-01-24T10:51:37;95610.69;;;19.49;33.80
1926;BME280;964;42.606;23.588;2023-01-24T10:54:04;95614.88;;;18.67;34.85
1926;BME280;964;42.606;23.588;2023-01-24T10:56:44;95608.41;;;19.58;33.95
1926;BME280;964;42.606;23.588;2023-01-24T10:59:14;95613.19;;;19.06;34.80
1926;BME280;964;42.606;23.588;2023-01-24T11:01:44;95611.09;;;18.75;34.89
1926;BME280;964;42.606;23.588;2023-01-24T11:04:19;95602.94;;;19.37;33.87
1926;BME280;964;42.606;23.588;2023-01-24T11:06:47;95606.25;;;18.44;35.81
1926;BME280;964;42.606;23.588;2023-01-24T11:09:16;95604.78;;;18.50;34.97
1926;BME280;964;42.606;23.588;2023-01-24T11:11:47;95605.22;;;18.59;34.94
1926;BME280;964;42.606;23.588;2023-01-24T11:14:19;95602.66;;;18.80;35.22
1926;BME280;964;42.606;23.588;2023-01-24T11:16:49;95593.88;;;19.84;33.71
1926;BME280;964;42.606;23.588;2023-01-24T11:19:28;95590.84;;;20.31;33.03
1926;BME280;964;42.606;23.588;2023-01-24T11:21:56;95593.09;;;20.68;32.60
1926;BME280;964;42.606;23.588;2023-01-24T11:24:24;95593.09;;;20.04;32.88
1926;BME280;964;42.606;23.588;2023-01-24T11:26:55;95588.84;;;19.89;33.76
1926;BME280;964;42.606;23.588;2023-01-24T11:29:24;95583.53;;;20.42;32.59
1926;BME280;964;42.606;23.588;2023-01-24T11:31:53;95586.88;;;19.47;33.67
1926;BME280;964;42.606;23.588;2023-01-24T11:34:46;95594.28;;;18.89;35.00
1926;BME280;964;42.606;23.588;2023-01-24T11:37:30;95579.88;;;19.29;33.87
1926;BME280;964;42.606;23.588;2023-01-24T11:40:08;95575.97;;;19.08;34.19
1926;BME280;964;42.606;23.588;2023-01-24T11:42:47;95581.72;;;18.42;35.40
1926;BME280;964;42.606;23.588;2023-01-24T11:45:32;95584.22;;;18.68;35.01
1926;BME280;964;42.606;23.588;2023-01-24T11:48:09;95573.63;;;19.03;34.42
1926;BME280;964;42.606;23.588;2023-01-24T11:50:48;95592.72;;;17.82;35.99
1926;BME280;964;42.606;23.588;2023-01-24T11:53:33;95575.72;;;18.59;35.39
1926;BME280;964;42.606;23.588;2023-01-24T11:56:12;95582.63;;;17.69;36.83
1926;BME280;964;42.606;23.588;2023-01-24T11:59:02;95581.19;;;17.78;36.50
1926;BME280;964;42.606;23.588;2023-01-24T12:01:42;95585.06;;;17.10;38.03
1926;BME280;964;42.606;23.588;2023-01-24T12:04:38;95577.97;;;17.62;35.98
1926;BME280;964;42.606;23.588;2023-01-24T12:07:15;95583.03;;;18.14;35.49
1926;BME280;964;42.606;23.588;2023-01-24T12:09:48;95587.13;;;18.49;35.51
1926;BME280;964;42.606;23.588;2023-01-24T12:12:23;95582.38;;;18.25;35.11
1926;BME280;964;42.606;23.588;2023-01-24T12:18:01;95586.91;;;18.17;35.19
1926;BME280;964;42.606;23.588;2023-01-24T12:20:51;95587.53;;;18.03;35.66
1926;BME280;964;42.606;23.588;2023-01-24T12:23:26;95588.91;;;17.83;35.70
1926;BME280;964;42.606;23.588;2023-01-24T12:25:56;95590.97;;;17.60;36.68
1926;BME280;964;42.606;23.588;2023-01-24T12:28:28;95598.25;;;18.03;36.42
1926;BME280;964;42.606;23.588;2023-01-24T12:31:01;95595.41;;;17.82;36.30
1926;BME280;964;42.606;23.588;2023-01-24T12:33:33;95593.16;;;18.35;35.23
1926;BME280;964;42.606;23.588;2023-01-24T12:36:06;95586.63;;;18.94;33.86
1926;BME280;964;42.606;23.588;2023-01-24T12:38:39;95594.16;;;18.64;34.76
1926;BME280;964;42.606;23.588;2023-01-24T12:41:15;95593.88;;;17.81;35.39
1926;BME280;964;42.606;23.588;2023-01-24T12:43:56;95597.41;;;17.55;36.03
1926;BME280;964;42.606;23.588;2023-01-24T12:46:29;95595.50;;;17.56;35.80
1926;BME280;964;42.606;23.588;2023-01-24T12:49:08;95598.47;;;17.14;37.68
1926;BME280;964;42.606;23.588;2023-01-24T12:51:42;95595.34;;;17.75;36.39
1926;BME280;964;42.606;23.588;2023-01-24T12:54:11;95600.69;;;17.42;36.42
1926;BME280;964;42.606;23.588;2023-01-24T12:56:47;95608.34;;;17.06;37.56
1926;BME280;964;42.606;23.588;2023-01-24T12:59:21;95589.34;;;17.92;35.92
1926;BME280;964;42.606;23.588;2023-01-24T13:02:12;95584.66;;;18.26;35.65
1926;BME280;964;42.606;23.588;2023-01-24T13:04:49;95581.66;;;18.93;34.63
1926;BME280;964;42.606;23.588;2023-01-24T13:07:31;95572.84;;;18.99;34.75
1926;BME280;964;42.606;23.588;2023-01-24T13:10:10;95578.16;;;18.85;35.21
1926;BME280;964;42.606;23.588;2023-01-24T13:12:39;95583.94;;;18.91;34.57
1926;BME280;964;42.606;23.588;2023-01-24T13:15:15;95583.41;;;18.64;34.04
1926;BME280;964;42.606;23.588;2023-01-24T13:17:59;95582.97;;;18.07;35.36
1926;BME280;964;42.606;23.588;2023-01-24T13:20:47;95588.09;;;17.79;36.64
1926;BME280;964;42.606;23.588;2023-01-24T13:29:42;95575.72;;;18.59;34.89
1926;BME280;964;42.606;23.588;2023-01-24T13:32:13;95576.53;;;18.70;35.13
1926;BME280;964;42.606;23.588;2023-01-24T13:34:43;95577.31;;;18.71;33.80
1926;BME280;964;42.606;23.588;2023-01-24T13:37:21;95588.78;;;17.69;36.73
1926;BME280;964;42.606;23.588;2023-01-24T13:39:59;95597.84;;;18.49;34.83
1926;BME280;964;42.606;23.588;2023-01-24T13:42:32;95603.72;;;18.10;35.88
1926;BME280;964;42.606;23.588;2023-01-24T13:54:19;95608.72;;;18.16;34.86
1926;BME280;964;42.606;23.588;2023-01-24T13:57:19;95614.59;;;17.84;35.96
1926;BME280;964;42.606;23.588;2023-01-24T14:00:16;95618.59;;;17.01;37.25
1926;BME280;964;42.606;23.588;2023-01-24T14:03:01;95621.25;;;16.97;37.48